sensor_id;sensor_type;location;lat;lon;timestamp;pressure;altitude;pressure_sealevel;temperature;humidity
6144;BME280;3103;49.492;8.474;2023-11-19T00:00:19;100383.63;;;9.29;100.00
6144;BME280;3103;49.492;8.474;2023-11-19T00:02:45;100387.38;;;9.39;100.00
6144;BME280;3103;49.492;8.474;2023-11-19T00:05:14;100376.66;;;9.39;100.00
6144;BME280;3103;49.492;8.474;2023-11-19T00:07:41;100374.56;;;9.30;100.00
6144;BME280;3103;49.492;8.474;2023-11-19T00:10:13;100383.66;;;9.40;100.00
6144;BME280;3103;49.492;8.474;2023-11-19T00:12:46;100386.81;;;9.61;100.00
6144;BME280;3103;49.492;8.474;2023-11-19T00:15:15;100368.63;;;9.51;100.00
6144;BME280;3103;49.492;8.474;2023-11-19T00:17:44;100366.41;;;9.36;100.00
6144;BME280;3103;49.492;8.474;2023-11-19T00:20:18;100362.09;;;9.35;100.00
6144;BME280;3103;49.492;8.474;2023-11-19T00:22:45;100361.59;;;9.27;100.00
6144;BME280;3103;49.492;8.474;2023-11-19T00:25:19;100348.69;;;9.35;100.00
6144;BME280;3103;49.492;8.474;2023-11-19T00:27:47;100331.41;;;9.55;100.00
6144;BME280;3103;49.492;8.474;2023-11-19T00:30:14;100329.84;;;9.70;100.00
6144;BME280;3103;49.492;8.474;2023-11-19T00:32:41;100346.47;;;9.44;100.00
6144;BME280;3103;49.492;8.474;2023-11-19T00:35:09;100351.94;;;9.37;100.00
6144;BME280;3103;49.492;8.474;2023-11-19T00:37:42;100339.09;;;9.28;100.00
6144;BME280;3103;49.492;8.474;2023-11-19T00:40:10;100341.31;;;9.54;100.00
6144;BME280;3103;49.492;8.474;2023-11-19T00:42:38;100343.09;;;9.37;100.00
6144;BME280;3103;49.492;8.474;2023-11-19T00:45:05;100347.63;;;9.48;100.00
6144;BME280;3103;49.492;8.474;2023-11-19T00:47:37;100340.28;;;9.43;100.00
6144;BME280;3103;49.492;8.474;2023-11-19T00:50:05;100338.41;;;9.56;100.00
6144;BME280;3103;49.492;8.474;2023-11-19T00:52:33;100347.50;;;9.55;100.00
6144;BME280;3103;49.492;8.474;2023-11-19T00:55:00;100350.16;;;9.66;100.00
6144;BME280;3103;49.492;8.474;2023-11-19T00:57:30;100341.06;;;9.67;100.00
6144;BME280;3103;49.492;8.474;2023-11-19T00:59:57;100338.53;;;9.61;100.00
6144;BME280;3103;49.492;8.474;2023-11-19T01:02:24;100352.25;;;9.88;100.00
6144;BME280;3103;49.492;8.474;2023-11-19T01:04:51;100352.03;;;9.77;100.00
6144;BME280;3103;49.492;8.474;2023-11-19T01:07:20;100346.88;;;9.88;100.00
6144;BME280;3103;49.492;8.474;2023-11-19T01:09:48;100346.25;;;9.97;100.00
6144;BME280;3103;49.492;8.474;2023-11-19T01:12:15;100339.53;;;9.83;100.00
6144;BME280;3103;49.492;8.474;2023-11-19T01:14:43;100335.84;;;9.72;100.00
6144;BME280;3103;49.492;8.474;2023-11-19T01:17:10;100328.72;;;9.66;100.00
6144;BME280;3103;49.492;8.474;2023-11-19T01:19:38;100334.53;;;9.87;100.00
6144;BME280;3103;49.492;8.474;2023-11-19T01:22:06;100332.88;;;9.86;100.00
6144;BME280;3103;49.492;8.474;2023-11-19T01:24:33;100327.56;;;9.62;100.00
6144;BME280;3103;49.492;8.474;2023-11-19T01:27:00;100339.22;;;9.56;100.00
6144;BME280;3103;49.492;8.474;2023-11-19T01:29:27;100340.72;;;9.64;100.00
6144;BME280;3103;49.492;8.474;2023-11-19T01:31:54;100335.69;;;9.67;100.00
6144;BME280;3103;49.492;8.474;2023-11-19T01:34:21;100338.97;;;9.69;100.00
6144;BME280;3103;49.492;8.474;2023-11-19T01:36:48;100354.38;;;9.62;100.00
6144;BME280;3103;49.492;8.474;2023-11-19T01:39:16;100356.75;;;9.99;100.00
6144;BME280;3103;49.492;8.474;2023-11-19T01:41:43;100346.66;;;9.89;100.00
6144;BME280;3103;49.492;8.474;2023-11-19T01:44:10;100352.84;;;9.78;100.00
6144;BME280;3103;49.492;8.474;2023-11-19T01:46:44;100330.34;;;9.67;100.00
6144;BME280;3103;49.492;8.474;2023-11-19T01:49:14;100306.34;;;9.61;100.00
6144;BME280;3103;49.492;8.474;2023-11-19T01:51:42;100328.84;;;9.60;100.00
6144;BME280;3103;49.492;8.474;2023-11-19T01:54:09;100318.53;;;9.80;100.00
6144;BME280;3103;49.492;8.474;2023-11-19T01:56:38;100309.94;;;9.55;100.00
6144;BME280;3103;49.492;8.474;2023-11-19T01:59:09;100320.66;;;9.55;100.00
6144;BME280;3103;49.492;8.474;2023-11-19T02:01:38;100317.16;;;9.66;100.00
6144;BME280;3103;49.492;8.474;2023-11-19T02:04:08;100323.69;;;9.70;100.00
6144;BME280;3103;49.492;8.474;2023-11-19T02:06:40;100308.03;;;9.90;100.00
6144;BME280;3103;49.492;8.474;2023-11-19T02:09:09;100280.50;;;9.83;100.00
6144;BME280;3103;49.492;8.474;2023-11-19T02:11:39;100273.75;;;9.69;100.00
6144;BME280;3103;49.492;8.474;2023-11-19T02:14:07;100270.81;;;9.82;100.00
6144;BME280;3103;49.492;8.474;2023-11-19T02:16:34;100279.69;;;9.71;100.00
6144;BME280;3103;49.492;8.474;2023-11-19T02:19:02;100275.13;;;9.83;100.00
6144;BME280;3103;49.492;8.474;2023-11-19T02:21:50;100274.78;;;9.79;100.00
6144;BME280;3103;49.492;8.474;2023-11-19T02:24:18;100288.44;;;9.78;100.00
6144;BME280;3103;49.492;8.474;2023-11-19T02:28:06;100284.34;;;9.87;100.00
6144;BME280;3103;49.492;8.474;2023-11-19T02:30:13;100279.75;;;9.99;100.00
6144;BME280;3103;49.492;8.474;2023-11-19T02:32:42;100289.13;;;9.85;100.00
6144;BME280;3103;49.492;8.474;2023-11-19T02:35:10;100274.47;;;9.76;100.00
6144;BME280;3103;49.492;8.474;2023-11-19T02:37:38;100286.78;;;9.89;100.00
6144;BME280;3103;49.492;8.474;2023-11-19T02:40:06;100276.31;;;10.16;100.00
6144;BME280;3103;49.492;8.474;2023-11-19T02:42:36;100274.16;;;10.01;100.00
6144;BME280;3103;49.492;8.474;2023-11-19T02:45:03;100265.41;;;9.94;100.00
6144;BME280;3103;49.492;8.474;2023-11-19T02:47:34;100264.25;;;9.90;100.00
6144;BME280;3103;49.492;8.474;2023-11-19T02:50:01;100260.00;;;10.05;100.00
6144;BME280;3103;49.492;8.474;2023-11-19T02:52:30;100252.53;;;10.07;100.00
6144;BME280;3103;49.492;8.474;2023-11-19T02:55:01;100265.56;;;9.87;100.00
6144;BME280;3103;49.492;8.474;2023-11-19T02:57:31;100252.06;;;9.99;100.00
6144;BME280;3103;49.492;8.474;2023-11-19T02:59:59;100244.03;;;9.99;100.00
6144;BME280;3103;49.492;8.474;2023-11-19T03:02:26;100239.38;;;9.94;100.00
6144;BME280;3103;49.492;8.474;2023-11-19T03:05:00;100227.09;;;9.98;100.00
6144;BME280;3103;49.492;8.474;2023-11-19T03:07:28;100224.41;;;9.98;100.00
6144;BME280;3103;49.492;8.474;2023-11-19T03:09:55;100232.97;;;9.95;100.00
6144;BME280;3103;49.492;8.474;2023-11-19T03:12:22;100225.09;;;10.05;100.00
6144;BME280;3103;49.492;8.474;2023-11-19T03:14:49;100222.34;;;10.00;100.00
6144;BME280;3103;49.492;8.474;2023-11-19T03:17:18;100221.53;;;10.00;100.00
6144;BME280;3103;49.492;8.474;2023-11-19T03:19:45;100210.69;;;9.95;100.00
6144;BME280;3103;49.492;8.474;2023-11-19T03:22:12;100217.91;;;9.94;100.00
6144;BME280;3103;49.492;8.474;2023-11-19T03:24:39;100220.03;;;9.92;100.00
6144;BME280;3103;49.492;8.474;2023-11-19T03:27:06;100216.84;;;9.95;100.00
6144;BME280;3103;49.492;8.474;2023-11-19T03:29:33;100216.28;;;9.93;100.00
6144;BME280;3103;49.492;8.474;2023-11-19T03:32:00;100218.72;;;9.95;100.00
6144;BME280;3103;49.492;8.474;2023-11-19T03:34:26;100218.59;;;10.01;100.00
6144;BME280;3103;49.492;8.474;2023-11-19T03:36:53;100218.03;;;9.99;100.00
6144;BME280;3103;49.492;8.474;2023-11-19T03:39:20;100223.41;;;9.99;100.00
6144;BME280;3103;49.492;8.474;2023-11-19T03:41:47;100214.50;;;9.99;100.00
6144;BME280;3103;49.492;8.474;2023-11-19T03:44:14;100209.50;;;10.02;100.00
6144;BME280;3103;49.492;8.474;2023-11-19T03:46:41;100198.75;;;10.02;100.00
6144;BME280;3103;49.492;8.474;2023-11-19T03:49:08;100209.31;;;10.09;100.00
6144;BME280;3103;49.492;8.474;2023-11-19T03:51:35;100197.78;;;10.08;100.00
6144;BME280;3103;49.492;8.474;2023-11-19T03:54:02;100205.75;;;10.03;100.00
6144;BME280;3103;49.492;8.474;2023-11-19T03:56:30;100210.13;;;10.09;100.00
6144;BME280;3103;49.492;8.474;2023-11-19T03:58:58;100213.31;;;10.06;100.00
6144;BME280;3103;49.492;8.474;2023-11-19T04:01:25;100204.75;;;10.21;100.00
6144;BME280;3103;49.492;8.474;2023-11-19T04:03:52;100195.94;;;10.26;100.00
6144;BME280;3103;49.492;8.474;2023-11-19T04:06:19;100195.94;;;10.26;100.00
6144;BME280;3103;49.492;8.474;2023-11-19T04:08:46;100191.19;;;10.28;100.00
6144;BME280;3103;49.492;8.474;2023-11-19T04:11:13;100199.81;;;10.30;100.00
6144;BME280;3103;49.492;8.474;2023-11-19T04:13:40;100205.63;;;10.27;100.00
6144;BME280;3103;49.492;8.474;2023-11-19T04:16:08;100209.88;;;10.23;100.00
6144;BME280;3103;49.492;8.474;2023-11-19T04:18:35;100223.63;;;10.26;100.00
6144;BME280;3103;49.492;8.474;2023-11-19T04:21:05;100210.53;;;10.30;100.00
6144;BME280;3103;49.492;8.474;2023-11-19T04:23:32;100217.53;;;10.31;100.00
6144;BME280;3103;49.492;8.474;2023-11-19T04:26:03;100224.53;;;10.32;100.00
6144;BME280;3103;49.492;8.474;2023-11-19T04:28:33;100215.81;;;10.25;100.00
6144;BME280;3103;49.492;8.474;2023-11-19T04:31:00;100206.31;;;10.34;100.00
6144;BME280;3103;49.492;8.474;2023-11-19T04:33:27;100205.63;;;10.27;100.00
6144;BME280;3103;49.492;8.474;2023-11-19T04:35:54;100206.22;;;10.29;100.00
6144;BME280;3103;49.492;8.474;2023-11-19T04:38:21;100200.63;;;10.47;100.00
6144;BME280;3103;49.492;8.474;2023-11-19T04:40:48;100205.50;;;10.50;100.00
6144;BME280;3103;49.492;8.474;2023-11-19T04:43:15;100205.50;;;10.50;100.00
6144;BME280;3103;49.492;8.474;2023-11-19T04:45:42;100202.72;;;10.62;100.00
6144;BME280;3103;49.492;8.474;2023-11-19T04:48:09;100194.34;;;10.58;100.00
6144;BME280;3103;49.492;8.474;2023-11-19T04:50:36;100186.94;;;10.49;100.00
6144;BME280;3103;49.492;8.474;2023-11-19T04:53:04;100194.34;;;10.42;100.00
6144;BME280;3103;49.492;8.474;2023-11-19T04:55:32;100194.44;;;10.47;100.00
6144;BME280;3103;49.492;8.474;2023-11-19T04:57:59;100177.47;;;10.63;100.00
6144;BME280;3103;49.492;8.474;2023-11-19T05:00:26;100176.59;;;10.57;100.00
6144;BME280;3103;49.492;8.474;2023-11-19T05:02:53;100188.75;;;10.43;100.00
6144;BME280;3103;49.492;8.474;2023-11-19T05:05:20;100199.16;;;10.56;100.00
6144;BME280;3103;49.492;8.474;2023-11-19T05:07:47;100199.78;;;10.63;100.00
6144;BME280;3103;49.492;8.474;2023-11-19T05:10:14;100209.53;;;10.69;100.00
6144;BME280;3103;49.492;8.474;2023-11-19T05:12:41;100214.28;;;10.62;100.00
6144;BME280;3103;49.492;8.474;2023-11-19T05:15:08;100206.97;;;10.58;100.00
6144;BME280;3103;49.492;8.474;2023-11-19T05:17:35;100210.38;;;10.53;100.00
6144;BME280;3103;49.492;8.474;2023-11-19T05:20:04;100202.25;;;10.48;100.00
6144;BME280;3103;49.492;8.474;2023-11-19T05:22:31;100208.25;;;10.55;100.00
6144;BME280;3103;49.492;8.474;2023-11-19T05:24:59;100203.94;;;10.54;100.00
6144;BME280;3103;49.492;8.474;2023-11-19T05:27:26;100206.72;;;10.59;100.00
6144;BME280;3103;49.492;8.474;2023-11-19T05:29:53;100202.41;;;10.58;100.00
6144;BME280;3103;49.492;8.474;2023-11-19T05:32:20;100200.28;;;10.60;100.00
6144;BME280;3103;49.492;8.474;2023-11-19T05:34:47;100195.38;;;10.74;100.00
6144;BME280;3103;49.492;8.474;2023-11-19T05:37:18;100195.63;;;10.73;100.00
6144;BME280;3103;49.492;8.474;2023-11-19T05:39:47;100188.88;;;10.70;100.00
6144;BME280;3103;49.492;8.474;2023-11-19T05:42:13;100190.00;;;10.74;100.00
6144;BME280;3103;49.492;8.474;2023-11-19T05:44:40;100192.91;;;10.89;100.00
6144;BME280;3103;49.492;8.474;2023-11-19T05:47:07;100184.19;;;10.82;100.00
6144;BME280;3103;49.492;8.474;2023-11-19T05:49:34;100190.31;;;10.78;100.00
6144;BME280;3103;49.492;8.474;2023-11-19T05:52:01;100176.09;;;10.77;100.00
6144;BME280;3103;49.492;8.474;2023-11-19T05:54:30;100162.59;;;10.72;100.00
6144;BME280;3103;49.492;8.474;2023-11-19T05:57:00;100171.91;;;10.86;100.00
6144;BME280;3103;49.492;8.474;2023-11-19T05:59:27;100166.41;;;10.76;100.00
6144;BME280;3103;49.492;8.474;2023-11-19T06:01:54;100159.84;;;10.89;100.00
6144;BME280;3103;49.492;8.474;2023-11-19T06:04:21;100162.91;;;10.97;100.00
6144;BME280;3103;49.492;8.474;2023-11-19T06:06:48;100174.41;;;10.93;100.00
6144;BME280;3103;49.492;8.474;2023-11-19T06:09:15;100170.16;;;10.97;100.00
6144;BME280;3103;49.492;8.474;2023-11-19T06:11:42;100176.25;;;11.09;100.00
6144;BME280;3103;49.492;8.474;2023-11-19T06:14:09;100188.16;;;11.35;100.00
6144;BME280;3103;49.492;8.474;2023-11-19T06:16:35;100190.03;;;11.35;100.00
6144;BME280;3103;49.492;8.474;2023-11-19T06:19:04;100189.78;;;11.36;100.00
6144;BME280;3103;49.492;8.474;2023-11-19T06:21:31;100184.38;;;11.36;100.00
6144;BME280;3103;49.492;8.474;2023-11-19T06:23:58;100188.78;;;11.20;100.00
6144;BME280;3103;49.492;8.474;2023-11-19T06:26:26;100186.72;;;11.27;100.00
6144;BME280;3103;49.492;8.474;2023-11-19T06:28:53;100195.84;;;11.26;100.00
6144;BME280;3103;49.492;8.474;2023-11-19T06:31:20;100178.31;;;11.24;100.00
6144;BME280;3103;49.492;8.474;2023-11-19T06:33:48;100174.91;;;11.28;100.00
6144;BME280;3103;49.492;8.474;2023-11-19T06:36:15;100191.78;;;11.46;100.00
6144;BME280;3103;49.492;8.474;2023-11-19T06:38:46;100181.53;;;11.43;100.00
6144;BME280;3103;49.492;8.474;2023-11-19T06:41:14;100188.69;;;11.37;100.00
6144;BME280;3103;49.492;8.474;2023-11-19T06:43:41;100186.44;;;11.51;100.00
6144;BME280;3103;49.492;8.474;2023-11-19T06:46:16;100187.38;;;11.62;100.00
6144;BME280;3103;49.492;8.474;2023-11-19T06:48:44;100193.44;;;11.52;100.00
6144;BME280;3103;49.492;8.474;2023-11-19T06:51:12;100202.03;;;11.49;100.00
6144;BME280;3103;49.492;8.474;2023-11-19T06:53:42;100203.66;;;11.50;100.00
6144;BME280;3103;49.492;8.474;2023-11-19T06:56:24;100211.84;;;11.38;100.00
6144;BME280;3103;49.492;8.474;2023-11-19T06:58:53;100223.06;;;11.52;100.00
6144;BME280;3103;49.492;8.474;2023-11-19T07:01:20;100221.50;;;11.56;100.00
6144;BME280;3103;49.492;8.474;2023-11-19T07:03:48;100213.44;;;11.56;100.00
6144;BME280;3103;49.492;8.474;2023-11-19T07:06:16;100210.66;;;11.51;100.00
6144;BME280;3103;49.492;8.474;2023-11-19T07:08:43;100213.44;;;11.56;100.00
6144;BME280;3103;49.492;8.474;2023-11-19T07:11:13;100216.13;;;11.56;100.00
6144;BME280;3103;49.492;8.474;2023-11-19T07:13:41;100211.16;;;11.48;100.00
6144;BME280;3103;49.492;8.474;2023-11-19T07:16:08;100208.09;;;11.39;100.00
6144;BME280;3103;49.492;8.474;2023-11-19T07:18:38;100212.84;;;11.54;100.00
6144;BME280;3103;49.492;8.474;2023-11-19T07:21:05;100225.63;;;11.64;100.00
6144;BME280;3103;49.492;8.474;2023-11-19T07:23:32;100230.69;;;11.60;100.00
6144;BME280;3103;49.492;8.474;2023-11-19T07:26:01;100224.75;;;11.80;100.00
6144;BME280;3103;49.492;8.474;2023-11-19T07:28:28;100224.34;;;11.93;100.00
6144;BME280;3103;49.492;8.474;2023-11-19T07:30:55;100227.56;;;11.90;100.00
6144;BME280;3103;49.492;8.474;2023-11-19T07:33:25;100233.41;;;12.09;100.00
6144;BME280;3103;49.492;8.474;2023-11-19T07:35:52;100231.28;;;12.11;100.00
6144;BME280;3103;49.492;8.474;2023-11-19T07:38:19;100232.97;;;12.17;100.00
6144;BME280;3103;49.492;8.474;2023-11-19T07:40:46;100231.38;;;12.21;100.00
6144;BME280;3103;49.492;8.474;2023-11-19T07:43:17;100228.16;;;12.24;100.00
6144;BME280;3103;49.492;8.474;2023-11-19T07:45:43;100232.81;;;12.29;100.00
6144;BME280;3103;49.492;8.474;2023-11-19T07:48:11;100233.06;;;12.27;100.00
6144;BME280;3103;49.492;8.474;2023-11-19T07:50:39;100234.44;;;12.30;100.00
6144;BME280;3103;49.492;8.474;2023-11-19T07:53:07;100236.75;;;12.21;100.00
6144;BME280;3103;49.492;8.474;2023-11-19T07:55:35;100234.31;;;12.19;100.00
6144;BME280;3103;49.492;8.474;2023-11-19T07:58:04;100262.06;;;12.20;100.00
6144;BME280;3103;49.492;8.474;2023-11-19T08:00:30;100248.25;;;12.11;100.00
6144;BME280;3103;49.492;8.474;2023-11-19T08:02:57;100251.91;;;12.00;100.00
6144;BME280;3103;49.492;8.474;2023-11-19T08:05:24;100253.47;;;11.96;100.00
6144;BME280;3103;49.492;8.474;2023-11-19T08:07:51;100259.72;;;12.02;100.00
6144;BME280;3103;49.492;8.474;2023-11-19T08:10:20;100273.97;;;11.97;100.00
6144;BME280;3103;49.492;8.474;2023-11-19T08:12:47;100279.00;;;11.94;100.00
6144;BME280;3103;49.492;8.474;2023-11-19T08:15:14;100287.59;;;11.91;100.00
6144;BME280;3103;49.492;8.474;2023-11-19T08:17:58;100284.41;;;11.94;100.00
6144;BME280;3103;49.492;8.474;2023-11-19T08:20:25;100270.88;;;11.88;100.00
6144;BME280;3103;49.492;8.474;2023-11-19T08:22:52;100267.44;;;11.93;100.00
6144;BME280;3103;49.492;8.474;2023-11-19T08:25:19;100255.25;;;11.85;100.00
6144;BME280;3103;49.492;8.474;2023-11-19T08:27:46;100259.00;;;11.84;100.00
6144;BME280;3103;49.492;8.474;2023-11-19T08:30:13;100254.88;;;11.99;100.00
6144;BME280;3103;49.492;8.474;2023-11-19T08:32:40;100246.28;;;12.02;100.00
6144;BME280;3103;49.492;8.474;2023-11-19T08:35:08;100238.44;;;12.27;100.00
6144;BME280;3103;49.492;8.474;2023-11-19T08:37:35;100245.41;;;12.23;100.00
6144;BME280;3103;49.492;8.474;2023-11-19T08:40:05;100240.34;;;12.27;100.00
6144;BME280;3103;49.492;8.474;2023-11-19T08:42:33;100237.22;;;12.40;100.00
6144;BME280;3103;49.492;8.474;2023-11-19T08:45:00;100252.63;;;12.44;100.00
6144;BME280;3103;49.492;8.474;2023-11-19T08:47:27;100268.03;;;12.81;100.00
6144;BME280;3103;49.492;8.474;2023-11-19T08:49:55;100267.53;;;12.89;100.00
6144;BME280;3103;49.492;8.474;2023-11-19T08:52:25;100269.94;;;12.86;100.00
6144;BME280;3103;49.492;8.474;2023-11-19T08:54:52;100266.00;;;13.03;100.00
6144;BME280;3103;49.492;8.474;2023-11-19T08:57:20;100265.28;;;13.13;100.00
6144;BME280;3103;49.492;8.474;2023-11-19T08:59:47;100260.25;;;13.27;100.00
6144;BME280;3103;49.492;8.474;2023-11-19T09:02:14;100267.28;;;13.28;100.00
6144;BME280;3103;49.492;8.474;2023-11-19T09:04:41;100258.31;;;13.22;100.00
6144;BME280;3103;49.492;8.474;2023-11-19T09:07:08;100267.91;;;13.45;100.00
6144;BME280;3103;49.492;8.474;2023-11-19T09:09:36;100271.22;;;13.57;100.00
6144;BME280;3103;49.492;8.474;2023-11-19T09:12:03;100271.25;;;13.68;100.00
6144;BME280;3103;49.492;8.474;2023-11-19T09:14:30;100274.78;;;13.68;99.76
6144;BME280;3103;49.492;8.474;2023-11-19T09:16:57;100278.28;;;13.69;99.34
6144;BME280;3103;49.492;8.474;2023-11-19T09:19:25;100283.66;;;13.63;99.64
6144;BME280;3103;49.492;8.474;2023-11-19T09:21:53;100272.34;;;13.66;98.69
6144;BME280;3103;49.492;8.474;2023-11-19T09:24:20;100279.09;;;13.69;98.33
6144;BME280;3103;49.492;8.474;2023-11-19T09:26:47;100275.84;;;13.67;98.52
6144;BME280;3103;49.492;8.474;2023-11-19T09:29:14;100286.44;;;13.89;97.33
6144;BME280;3103;49.492;8.474;2023-11-19T09:31:42;100286.50;;;14.04;96.92
6144;BME280;3103;49.492;8.474;2023-11-19T09:34:08;100276.50;;;13.94;97.41
6144;BME280;3103;49.492;8.474;2023-11-19T09:36:36;100286.50;;;13.94;96.60
6144;BME280;3103;49.492;8.474;2023-11-19T09:39:04;100282.16;;;13.98;96.32
6144;BME280;3103;49.492;8.474;2023-11-19T09:41:32;100279.75;;;13.96;96.45
6144;BME280;3103;49.492;8.474;2023-11-19T09:43:59;100286.44;;;13.89;95.84
6144;BME280;3103;49.492;8.474;2023-11-19T09:46:26;100280.78;;;13.85;96.60
6144;BME280;3103;49.492;8.474;2023-11-19T09:48:53;100274.63;;;14.00;95.95
6144;BME280;3103;49.492;8.474;2023-11-19T09:51:23;100271.38;;;14.03;95.66
6144;BME280;3103;49.492;8.474;2023-11-19T09:53:50;100280.56;;;13.97;96.01
6144;BME280;3103;49.492;8.474;2023-11-19T09:56:17;100288.13;;;14.00;96.05
6144;BME280;3103;49.492;8.474;2023-11-19T09:58:47;100278.94;;;13.96;96.21
6144;BME280;3103;49.492;8.474;2023-11-19T10:01:15;100283.75;;;13.89;96.25
6144;BME280;3103;49.492;8.474;2023-11-19T10:03:55;100283.75;;;13.89;97.42
6144;BME280;3103;49.492;8.474;2023-11-19T10:06:24;100271.59;;;13.86;96.70
6144;BME280;3103;49.492;8.474;2023-11-19T10:08:54;100281.31;;;13.82;97.59
6144;BME280;3103;49.492;8.474;2023-11-19T10:11:22;100278.34;;;13.89;97.95
6144;BME280;3103;49.492;8.474;2023-11-19T10:13:49;100280.28;;;13.99;97.82
6144;BME280;3103;49.492;8.474;2023-11-19T10:16:17;100288.13;;;14.05;97.33
6144;BME280;3103;49.492;8.474;2023-11-19T10:18:49;100296.75;;;14.02;98.47
6144;BME280;3103;49.492;8.474;2023-11-19T10:21:18;100304.06;;;14.02;99.22
6144;BME280;3103;49.492;8.474;2023-11-19T10:23:56;100284.09;;;14.13;99.32
6144;BME280;3103;49.492;8.474;2023-11-19T10:26:28;100282.22;;;14.18;97.25
6144;BME280;3103;49.492;8.474;2023-11-19T10:28:55;100282.75;;;14.15;95.38
6144;BME280;3103;49.492;8.474;2023-11-19T10:31:22;100287.06;;;14.11;92.94
6144;BME280;3103;49.492;8.474;2023-11-19T10:33:52;100282.47;;;14.17;93.05
6144;BME280;3103;49.492;8.474;2023-11-19T10:36:20;100276.03;;;14.23;93.23
6144;BME280;3103;49.492;8.474;2023-11-19T10:38:55;100272.00;;;14.36;92.46
6144;BME280;3103;49.492;8.474;2023-11-19T10:41:29;100273.63;;;14.37;91.93
6144;BME280;3103;49.492;8.474;2023-11-19T10:43:59;100267.69;;;14.40;92.31
6144;BME280;3103;49.492;8.474;2023-11-19T10:46:40;100269.84;;;14.48;91.95
6144;BME280;3103;49.492;8.474;2023-11-19T10:49:08;100264.44;;;14.48;91.85
6144;BME280;3103;49.492;8.474;2023-11-19T10:51:35;100249.03;;;14.38;91.83
6144;BME280;3103;49.492;8.474;2023-11-19T10:54:04;100253.31;;;14.34;92.40
6144;BME280;3103;49.492;8.474;2023-11-19T10:56:35;100248.44;;;14.21;92.67
6144;BME280;3103;49.492;8.474;2023-11-19T10:59:03;100249.53;;;14.20;92.38
6144;BME280;3103;49.492;8.474;2023-11-19T11:01:48;100249.78;;;14.18;92.18
6144;BME280;3103;49.492;8.474;2023-11-19T11:04:23;100245.47;;;14.17;91.91
6144;BME280;3103;49.492;8.474;2023-11-19T11:06:51;100241.41;;;14.15;92.64
6144;BME280;3103;49.492;8.474;2023-11-19T11:09:18;100247.91;;;14.14;91.90
6144;BME280;3103;49.492;8.474;2023-11-19T11:11:47;100232.50;;;14.09;91.68
6144;BME280;3103;49.492;8.474;2023-11-19T11:14:16;100238.19;;;14.08;92.24
6144;BME280;3103;49.492;8.474;2023-11-19T11:16:46;100253.31;;;14.14;92.10
6144;BME280;3103;49.492;8.474;2023-11-19T11:19:15;100249.78;;;14.13;93.09
6144;BME280;3103;49.492;8.474;2023-11-19T11:21:46;100240.88;;;14.08;93.15
6144;BME280;3103;49.492;8.474;2023-11-19T11:24:49;100229.81;;;14.09;92.90
6144;BME280;3103;49.492;8.474;2023-11-19T11:27:38;100236.81;;;14.10;91.50
6144;BME280;3103;49.492;8.474;2023-11-19T11:36:30;100246.31;;;14.23;88.58
6144;BME280;3103;49.492;8.474;2023-11-19T11:38:59;100228.75;;;14.31;88.15
6144;BME280;3103;49.492;8.474;2023-11-19T11:41:27;100239.00;;;14.34;87.17
6144;BME280;3103;49.492;8.474;2023-11-19T11:43:56;100222.28;;;14.37;86.82
6144;BME280;3103;49.492;8.474;2023-11-19T11:49:06;100233.13;;;14.52;84.48
6144;BME280;3103;49.492;8.474;2023-11-19T11:54:26;100228.25;;;14.69;81.64
6144;BME280;3103;49.492;8.474;2023-11-19T11:59:46;100228.50;;;14.83;80.33
6144;BME280;3103;49.492;8.474;2023-11-19T12:02:16;100226.88;;;14.82;80.84
6144;BME280;3103;49.492;8.474;2023-11-19T12:04:47;100219.56;;;14.88;78.13
6144;BME280;3103;49.492;8.474;2023-11-19T12:07:20;100219.03;;;14.85;78.00
6144;BME280;3103;49.492;8.474;2023-11-19T12:10:05;100212.00;;;14.84;78.12
6144;BME280;3103;49.492;8.474;2023-11-19T12:12:34;100213.59;;;14.91;78.34
6144;BME280;3103;49.492;8.474;2023-11-19T12:20:06;100205.75;;;14.89;77.92
6144;BME280;3103;49.492;8.474;2023-11-19T12:22:38;100218.47;;;14.89;76.89
6144;BME280;3103;49.492;8.474;2023-11-19T12:25:08;100218.47;;;14.89;77.25
6144;BME280;3103;49.492;8.474;2023-11-19T12:27:55;100209.28;;;14.90;76.88
6144;BME280;3103;49.492;8.474;2023-11-19T12:30:23;100219.28;;;14.99;74.74
6144;BME280;3103;49.492;8.474;2023-11-19T12:32:52;100209.31;;;14.79;73.08
6144;BME280;3103;49.492;8.474;2023-11-19T12:35:23;100206.59;;;14.95;70.95
6144;BME280;3103;49.492;8.474;2023-11-19T12:37:51;100199.50;;;15.04;70.42
6144;BME280;3103;49.492;8.474;2023-11-19T12:40:24;100198.16;;;15.01;70.51
6144;BME280;3103;49.492;8.474;2023-11-19T12:42:52;100200.34;;;14.99;70.05
6144;BME280;3103;49.492;8.474;2023-11-19T12:45:23;100183.84;;;14.96;70.03
6144;BME280;3103;49.492;8.474;2023-11-19T12:48:06;100189.25;;;15.01;70.38
6144;BME280;3103;49.492;8.474;2023-11-19T12:53:21;100190.31;;;15.05;70.55
6144;BME280;3103;49.492;8.474;2023-11-19T12:55:49;100187.88;;;15.03;70.03
6144;BME280;3103;49.492;8.474;2023-11-19T13:01:03;100172.75;;;14.97;70.73
6144;BME280;3103;49.492;8.474;2023-11-19T13:03:34;100175.72;;;14.91;69.93
6144;BME280;3103;49.492;8.474;2023-11-19T13:06:06;100170.66;;;14.79;70.39
6144;BME280;3103;49.492;8.474;2023-11-19T13:11:08;100180.63;;;14.83;69.95
6144;BME280;3103;49.492;8.474;2023-11-19T13:13:56;100174.69;;;14.76;70.13
6144;BME280;3103;49.492;8.474;2023-11-19T13:16:24;100165.78;;;14.71;69.73
6144;BME280;3103;49.492;8.474;2023-11-19T13:18:53;100174.69;;;14.81;70.23
6144;BME280;3103;49.492;8.474;2023-11-19T13:21:20;100160.13;;;14.57;70.25
6144;BME280;3103;49.492;8.474;2023-11-19T13:23:47;100155.25;;;14.54;71.24
6144;BME280;3103;49.492;8.474;2023-11-19T13:26:14;100159.00;;;14.73;71.40
6144;BME280;3103;49.492;8.474;2023-11-19T13:28:41;100153.63;;;14.68;71.05
6144;BME280;3103;49.492;8.474;2023-11-19T13:31:08;100155.47;;;14.88;71.21
6144;BME280;3103;49.492;8.474;2023-11-19T13:33:35;100155.19;;;14.90;71.23
6144;BME280;3103;49.492;8.474;2023-11-19T13:36:04;100164.91;;;14.91;71.24
6144;BME280;3103;49.492;8.474;2023-11-19T13:38:35;100163.28;;;14.90;71.84
6144;BME280;3103;49.492;8.474;2023-11-19T13:41:03;100157.38;;;14.77;69.07